createdAt,value
2018-10-16T00:02:06.793Z,55.31
2018-10-16T00:07:09.221Z,55.61
2018-10-16T00:12:11.610Z,55.21
2018-10-16T00:17:13.924Z,56.07
2018-10-16T00:22:16.268Z,56.37
2018-10-16T00:27:18.580Z,56.61
2018-10-16T00:32:20.889Z,56.68
2018-10-16T00:37:23.299Z,56.84
2018-10-16T00:42:25.669Z,56.86
2018-10-16T00:47:28.015Z,57.74
2018-10-16T00:52:30.332Z,57.71
2018-10-16T00:57:32.640Z,58.29
2018-10-16T01:02:35.043Z,58.39
2018-10-16T01:07:37.524Z,58.93
2018-10-16T01:12:40.524Z,58.33
2018-10-16T01:17:42.911Z,58.29
2018-10-16T01:22:45.249Z,58.44
2018-10-16T01:27:47.557Z,58.32
2018-10-16T01:32:49.857Z,59.31
2018-10-16T01:37:52.265Z,59.85
2018-10-16T01:42:54.678Z,60.64
2018-10-16T01:47:56.985Z,60.48
2018-10-16T01:52:59.307Z,59.35
2018-10-16T01:58:01.649Z,59.75
2018-10-16T02:03:04.103Z,60.74
2018-10-16T02:08:07.424Z,61.02
2018-10-16T02:13:09.757Z,62.32
2018-10-16T02:18:12.102Z,62.10
2018-10-16T02:23:14.443Z,62.59
2018-10-16T02:28:16.783Z,62.44
2018-10-16T02:33:19.085Z,62.93
2018-10-16T02:38:21.457Z,62.82
2018-10-16T02:43:23.835Z,62.68
2018-10-16T02:48:26.144Z,63.04
2018-10-16T02:53:28.468Z,63.21
2018-10-16T02:58:30.824Z,63.00
2018-10-16T03:03:34.919Z,63.66
2018-10-16T03:08:37.823Z,63.83
2018-10-16T03:13:40.188Z,63.75
2018-10-16T03:18:42.489Z,63.96
2018-10-16T03:23:44.832Z,64.00
2018-10-16T03:28:47.169Z,63.99
2018-10-16T03:33:49.478Z,64.49
2018-10-16T03:38:51.832Z,64.85
2018-10-16T03:43:59.349Z,63.88
2018-10-16T03:49:01.694Z,64.76
2018-10-16T03:54:04.399Z,65.12
2018-10-16T03:59:06.688Z,64.82
2018-10-16T04:04:09.013Z,65.27
2018-10-16T04:09:11.309Z,65.04
2018-10-16T04:14:13.630Z,66.07
2018-10-16T04:19:15.905Z,65.77
2018-10-16T04:24:18.184Z,66.12
2018-10-16T04:29:20.496Z,66.32
2018-10-16T04:34:22.774Z,66.22
2018-10-16T04:39:25.024Z,66.65
2018-10-16T04:44:27.321Z,66.66
2018-10-16T04:49:29.572Z,66.74
2018-10-16T04:54:31.818Z,67.86
2018-10-16T04:59:34.074Z,67.54
2018-10-16T05:04:36.329Z,67.30
2018-10-16T05:09:38.697Z,67.60
2018-10-16T05:14:41.028Z,67.80
2018-10-16T05:19:43.269Z,67.96
2018-10-16T05:24:45.558Z,68.40
2018-10-16T05:29:47.841Z,68.24
2018-10-16T05:34:50.130Z,68.35
2018-10-16T05:39:52.414Z,68.39
2018-10-16T05:44:54.731Z,69.22
2018-10-16T05:49:57.021Z,69.70
2018-10-16T05:55:00.812Z,68.92
2018-10-16T06:00:15.805Z,69.45
2018-10-16T06:05:18.103Z,69.12
2018-10-16T06:10:20.435Z,68.84
2018-10-16T06:15:22.743Z,69.32
2018-10-16T06:20:25.159Z,68.79
2018-10-16T06:25:27.448Z,68.11
2018-10-16T06:30:29.723Z,68.27
2018-10-16T06:35:32.239Z,67.98
2018-10-16T06:40:34.555Z,67.96
2018-10-16T06:45:36.863Z,67.69
2018-10-16T06:50:39.123Z,67.40
2018-10-16T06:55:41.372Z,67.33
2018-10-16T07:00:43.620Z,66.50
2018-10-16T07:05:45.891Z,67.05
2018-10-16T07:10:48.161Z,66.16
2018-10-16T07:15:50.485Z,65.33
2018-10-16T07:20:52.755Z,65.29
2018-10-16T07:25:55.062Z,65.30
2018-10-16T07:30:57.348Z,65.34
2018-10-16T07:35:59.702Z,65.49
2018-10-16T07:41:01.999Z,65.94
2018-10-16T07:46:04.569Z,65.28
2018-10-16T07:51:06.847Z,65.07
2018-10-16T07:56:09.233Z,64.40
2018-10-16T08:01:11.520Z,64.10
2018-10-16T08:06:13.812Z,64.34
2018-10-16T08:11:16.124Z,63.31
2018-10-16T08:16:18.512Z,63.87
2018-10-16T08:21:20.765Z,62.93
2018-10-16T08:26:23.024Z,62.30
2018-10-16T08:31:25.410Z,61.98
2018-10-16T08:36:27.746Z,60.20
2018-10-16T08:41:34.758Z,59.43
2018-10-16T08:46:48.638Z,59.80
2018-10-16T08:51:53.317Z,59.98
2018-10-16T08:56:55.594Z,59.86
2018-10-16T09:01:57.961Z,60.50
2018-10-16T09:07:00.360Z,60.53
2018-10-16T09:12:02.661Z,60.22
2018-10-16T09:17:05.119Z,60.32
2018-10-16T09:22:07.445Z,59.35
2018-10-16T09:27:09.811Z,59.24
2018-10-16T09:32:12.081Z,59.08
2018-10-16T09:37:14.422Z,58.69
2018-10-16T09:42:16.695Z,59.18
2018-10-16T09:47:19.013Z,59.22
2018-10-16T09:52:21.286Z,60.30
2018-10-16T09:57:23.650Z,59.23
2018-10-16T10:02:25.947Z,58.74
2018-10-16T10:07:28.332Z,59.26
2018-10-16T10:12:30.596Z,59.14
2018-10-16T10:17:32.962Z,58.53
2018-10-16T10:22:35.285Z,57.69
2018-10-16T10:27:37.566Z,57.60
2018-10-16T10:32:40.064Z,57.30
2018-10-16T10:37:42.449Z,57.32
2018-10-16T10:42:44.803Z,57.21
2018-10-16T10:47:47.125Z,56.20
2018-10-16T10:52:49.413Z,55.66
2018-10-16T10:57:51.687Z,55.65
2018-10-16T11:02:54.078Z,55.68
2018-10-16T11:07:56.321Z,54.95
2018-10-16T11:12:58.613Z,54.59
2018-10-16T11:18:00.925Z,54.53
2018-10-16T11:23:03.358Z,54.82
2018-10-16T11:28:05.825Z,54.95
2018-10-16T11:33:08.182Z,54.74
2018-10-16T11:38:10.418Z,54.48
2018-10-16T11:43:12.775Z,54.10
2018-10-16T11:48:15.194Z,53.76
2018-10-16T11:53:17.567Z,54.27
2018-10-16T11:58:19.842Z,54.28
2018-10-16T12:03:22.146Z,54.63
2018-10-16T12:08:24.429Z,54.68
2018-10-16T12:13:26.726Z,55.05
2018-10-16T12:19:33.616Z,55.15
2018-10-16T12:24:35.970Z,54.57
2018-10-16T12:29:38.228Z,53.82
2018-10-16T12:34:40.647Z,53.66
2018-10-16T12:39:43.044Z,52.54
2018-10-16T12:44:45.253Z,52.28
2018-10-16T12:49:47.539Z,50.79
2018-10-16T12:54:49.800Z,51.57
2018-10-16T12:59:52.274Z,51.61
2018-10-16T13:04:54.530Z,51.92
2018-10-16T13:09:56.784Z,52.14
2018-10-16T13:14:59.289Z,50.94
2018-10-16T13:20:01.619Z,51.67
2018-10-16T13:25:04.468Z,52.09
2018-10-16T13:30:08.868Z,50.08
2018-10-16T13:35:13.096Z,51.47
2018-10-16T13:40:15.388Z,51.42
2018-10-16T13:45:17.699Z,57.35
2018-10-16T13:50:19.987Z,58.58
2018-10-16T13:55:22.245Z,60.87
2018-10-16T14:00:24.529Z,58.60
2018-10-16T14:05:26.824Z,61.03
2018-10-16T14:10:29.072Z,62.38
2018-10-16T14:15:31.324Z,62.66
2018-10-16T14:20:33.822Z,63.48
2018-10-16T14:25:36.120Z,62.03
2018-10-16T14:30:38.403Z,63.64
2018-10-16T14:35:40.681Z,62.65
2018-10-16T14:40:43.011Z,62.68
2018-10-16T14:45:45.386Z,61.22
2018-10-16T14:50:47.817Z,59.63
2018-10-16T14:55:50.093Z,60.86
2018-10-16T15:00:52.435Z,61.70
2018-10-16T15:05:54.809Z,61.17
2018-10-16T15:10:57.877Z,61.16
2018-10-16T15:16:00.244Z,61.86
2018-10-16T15:21:02.636Z,61.73
2018-10-16T15:26:05.528Z,62.81
2018-10-16T15:31:07.797Z,64.79
2018-10-16T15:36:10.184Z,65.56
2018-10-16T15:41:12.606Z,67.63
2018-10-16T15:46:14.907Z,69.09
2018-10-16T15:51:17.194Z,67.27
2018-10-16T15:56:19.534Z,67.81
2018-10-16T16:01:21.904Z,68.25
2018-10-16T16:06:24.197Z,68.02
2018-10-16T16:11:26.728Z,67.22
2018-10-16T16:16:28.996Z,67.38
2018-10-16T16:21:31.681Z,68.18
2018-10-16T16:26:33.975Z,67.42
2018-10-16T16:31:36.391Z,67.57
2018-10-16T16:36:38.685Z,67.75
2018-10-16T16:41:41.222Z,67.92
2018-10-16T16:46:43.501Z,67.50
2018-10-16T16:51:45.849Z,67.15
2018-10-16T16:56:48.152Z,67.02
2018-10-16T17:01:51.067Z,66.71
2018-10-16T17:06:53.917Z,67.00
2018-10-16T17:11:56.588Z,68.00
2018-10-16T17:16:59.649Z,68.96
2018-10-16T17:22:01.990Z,69.80
2018-10-16T17:27:04.425Z,68.93
2018-10-16T17:32:06.700Z,69.42
2018-10-16T17:37:09.046Z,70.09
2018-10-16T17:42:11.333Z,69.69
2018-10-16T17:47:15.571Z,70.08
2018-10-16T17:52:17.936Z,69.32
2018-10-16T17:57:21.739Z,70.45
2018-10-16T18:02:24.100Z,70.97
2018-10-16T18:07:27.838Z,70.46
2018-10-16T18:12:30.230Z,70.60
2018-10-16T18:17:32.537Z,69.45
2018-10-16T18:22:34.882Z,70.23
2018-10-16T18:27:37.337Z,69.78
2018-10-16T18:32:39.925Z,70.68
2018-10-16T18:37:43.005Z,70.72
2018-10-16T18:42:45.285Z,70.75
2018-10-16T18:47:47.693Z,72.27
2018-10-16T18:52:50.110Z,73.06
2018-10-16T18:57:52.474Z,74.08
2018-10-16T19:02:54.809Z,74.72
2018-10-16T19:07:57.082Z,74.05
2018-10-16T19:13:02.527Z,73.67
2018-10-16T19:18:04.861Z,73.89
2018-10-16T19:23:07.178Z,74.00
2018-10-16T19:28:09.472Z,73.44
2018-10-16T19:33:11.919Z,73.06
2018-10-16T19:38:14.059Z,72.53
2018-10-16T19:43:16.309Z,71.80
2018-10-16T19:48:18.729Z,72.91
2018-10-16T19:53:21.092Z,73.11
2018-10-16T19:58:23.374Z,73.84
2018-10-16T20:03:25.705Z,72.98
2018-10-16T20:08:28.590Z,74.95
2018-10-16T20:13:30.899Z,73.93
2018-10-16T20:18:33.239Z,74.88
2018-10-16T20:23:35.573Z,75.08
2018-10-16T20:28:37.995Z,75.36
2018-10-16T20:33:40.245Z,76.60
2018-10-16T20:38:42.610Z,75.93
2018-10-16T20:43:44.860Z,76.86
2018-10-16T20:48:47.107Z,76.40
2018-10-16T20:53:49.449Z,76.82
2018-10-16T20:58:52.102Z,78.30
2018-10-16T21:03:54.406Z,78.13
2018-10-16T21:08:56.661Z,78.37
2018-10-16T21:13:58.921Z,78.79
2018-10-16T21:19:01.212Z,78.90
2018-10-16T21:24:03.825Z,78.68
2018-10-16T21:29:06.171Z,78.96
2018-10-16T21:34:08.400Z,78.49
2018-10-16T21:39:11.102Z,79.76
2018-10-16T21:44:13.421Z,79.34
2018-10-16T21:49:15.736Z,80.61
2018-10-16T21:54:18.256Z,79.93
2018-10-16T21:59:20.553Z,80.02
2018-10-16T22:04:22.808Z,79.85
2018-10-16T22:09:25.074Z,79.95
2018-10-16T22:14:27.332Z,80.16
2018-10-16T22:19:29.594Z,80.32
2018-10-16T22:24:31.964Z,80.06
2018-10-16T22:29:34.308Z,80.24
2018-10-16T22:34:36.481Z,81.56
2018-10-16T22:39:38.749Z,81.69
2018-10-16T22:44:41.133Z,81.40
2018-10-16T22:49:43.356Z,82.32
2018-10-16T22:54:45.813Z,81.40
2018-10-16T22:59:48.060Z,81.27
2018-10-16T23:04:50.304Z,81.99
2018-10-16T23:09:52.550Z,82.19
2018-10-16T23:14:54.798Z,82.55
2018-10-16T23:19:57.047Z,81.82
2018-10-16T23:24:59.654Z,81.96
2018-10-16T23:30:02.112Z,82.42
2018-10-16T23:35:04.851Z,82.01
2018-10-16T23:40:07.144Z,82.71
2018-10-16T23:45:09.424Z,82.15
2018-10-16T23:50:11.748Z,82.85
2018-10-16T23:55:14.106Z,84.42
